sensor_id;sensor_type;location;lat;lon;timestamp;temperature;humidity
21331;DHT22;10824;51.632;4.950;2023-12-20T00:01:07;6.70;99.90
21331;DHT22;10824;51.632;4.950;2023-12-20T00:03:35;6.70;99.90
21331;DHT22;10824;51.632;4.950;2023-12-20T00:06:09;6.70;99.90
21331;DHT22;10824;51.632;4.950;2023-12-20T00:08:37;6.70;99.90
21331;DHT22;10824;51.632;4.950;2023-12-20T00:11:06;6.70;99.90
21331;DHT22;10824;51.632;4.950;2023-12-20T00:13:33;6.60;99.90
21331;DHT22;10824;51.632;4.950;2023-12-20T00:15:59;6.60;99.90
21331;DHT22;10824;51.632;4.950;2023-12-20T00:18:27;6.60;99.90
21331;DHT22;10824;51.632;4.950;2023-12-20T00:20:54;6.50;99.90
21331;DHT22;10824;51.632;4.950;2023-12-20T00:23:21;6.60;99.90
21331;DHT22;10824;51.632;4.950;2023-12-20T00:25:49;6.50;99.90
21331;DHT22;10824;51.632;4.950;2023-12-20T00:28:16;6.50;99.90
21331;DHT22;10824;51.632;4.950;2023-12-20T00:30:44;6.50;99.90
21331;DHT22;10824;51.632;4.950;2023-12-20T00:33:11;6.50;99.90
21331;DHT22;10824;51.632;4.950;2023-12-20T00:35:38;6.50;99.90
21331;DHT22;10824;51.632;4.950;2023-12-20T00:38:05;6.50;99.90
21331;DHT22;10824;51.632;4.950;2023-12-20T00:40:33;6.50;99.90
21331;DHT22;10824;51.632;4.950;2023-12-20T00:43:00;6.50;99.90
21331;DHT22;10824;51.632;4.950;2023-12-20T00:45:28;6.50;99.90
21331;DHT22;10824;51.632;4.950;2023-12-20T00:47:57;6.50;99.90
21331;DHT22;10824;51.632;4.950;2023-12-20T00:50:24;6.50;99.90
21331;DHT22;10824;51.632;4.950;2023-12-20T00:52:55;6.50;99.90
21331;DHT22;10824;51.632;4.950;2023-12-20T00:55:23;6.50;99.90
21331;DHT22;10824;51.632;4.950;2023-12-20T00:57:50;6.50;99.90
21331;DHT22;10824;51.632;4.950;2023-12-20T01:00:17;6.40;99.90
21331;DHT22;10824;51.632;4.950;2023-12-20T01:02:44;6.40;99.90
21331;DHT22;10824;51.632;4.950;2023-12-20T01:05:13;6.40;99.90
21331;DHT22;10824;51.632;4.950;2023-12-20T01:07:40;6.40;99.90
21331;DHT22;10824;51.632;4.950;2023-12-20T01:10:08;6.40;99.90
21331;DHT22;10824;51.632;4.950;2023-12-20T01:12:36;6.40;99.90
21331;DHT22;10824;51.632;4.950;2023-12-20T01:15:03;6.40;99.90
21331;DHT22;10824;51.632;4.950;2023-12-20T01:17:30;6.40;99.90
21331;DHT22;10824;51.632;4.950;2023-12-20T01:19:58;6.30;99.90
21331;DHT22;10824;51.632;4.950;2023-12-20T01:22:25;6.30;99.90
21331;DHT22;10824;51.632;4.950;2023-12-20T01:24:52;6.40;99.90
21331;DHT22;10824;51.632;4.950;2023-12-20T01:27:19;6.30;99.90
21331;DHT22;10824;51.632;4.950;2023-12-20T01:29:46;6.30;99.90
21331;DHT22;10824;51.632;4.950;2023-12-20T01:32:13;6.40;99.90
21331;DHT22;10824;51.632;4.950;2023-12-20T01:34:40;6.30;99.90
21331;DHT22;10824;51.632;4.950;2023-12-20T01:37:07;6.30;99.90
21331;DHT22;10824;51.632;4.950;2023-12-20T01:39:35;6.30;99.90
21331;DHT22;10824;51.632;4.950;2023-12-20T01:42:02;6.30;99.90
21331;DHT22;10824;51.632;4.950;2023-12-20T01:44:29;6.20;99.90
21331;DHT22;10824;51.632;4.950;2023-12-20T01:46:56;6.20;99.90
21331;DHT22;10824;51.632;4.950;2023-12-20T01:49:24;6.20;99.90
21331;DHT22;10824;51.632;4.950;2023-12-20T01:51:52;6.20;99.90
21331;DHT22;10824;51.632;4.950;2023-12-20T01:54:19;6.30;99.90
21331;DHT22;10824;51.632;4.950;2023-12-20T01:56:48;6.20;99.90
21331;DHT22;10824;51.632;4.950;2023-12-20T01:59:17;6.20;99.90
21331;DHT22;10824;51.632;4.950;2023-12-20T02:01:45;6.20;99.90
21331;DHT22;10824;51.632;4.950;2023-12-20T02:04:13;6.20;99.90
21331;DHT22;10824;51.632;4.950;2023-12-20T02:06:40;6.20;99.90
21331;DHT22;10824;51.632;4.950;2023-12-20T02:09:10;6.20;99.90
21331;DHT22;10824;51.632;4.950;2023-12-20T02:11:38;6.20;99.90
21331;DHT22;10824;51.632;4.950;2023-12-20T02:14:05;6.30;99.90
21331;DHT22;10824;51.632;4.950;2023-12-20T02:16:32;6.30;99.90
21331;DHT22;10824;51.632;4.950;2023-12-20T02:19:00;6.30;99.90
21331;DHT22;10824;51.632;4.950;2023-12-20T02:21:32;6.30;99.90
21331;DHT22;10824;51.632;4.950;2023-12-20T02:24:03;6.30;99.90
21331;DHT22;10824;51.632;4.950;2023-12-20T02:26:32;6.30;99.90
21331;DHT22;10824;51.632;4.950;2023-12-20T02:29:00;6.30;99.90
21331;DHT22;10824;51.632;4.950;2023-12-20T02:31:27;6.30;99.90
21331;DHT22;10824;51.632;4.950;2023-12-20T02:33:54;6.30;99.90
21331;DHT22;10824;51.632;4.950;2023-12-20T02:36:21;6.30;99.90
21331;DHT22;10824;51.632;4.950;2023-12-20T02:38:48;6.40;99.90
21331;DHT22;10824;51.632;4.950;2023-12-20T02:41:17;6.40;99.90
21331;DHT22;10824;51.632;4.950;2023-12-20T02:43:45;6.40;99.90
21331;DHT22;10824;51.632;4.950;2023-12-20T02:46:14;6.40;99.90
21331;DHT22;10824;51.632;4.950;2023-12-20T02:48:42;6.40;99.90
21331;DHT22;10824;51.632;4.950;2023-12-20T02:51:10;6.40;99.90
21331;DHT22;10824;51.632;4.950;2023-12-20T02:53:37;6.50;99.90
21331;DHT22;10824;51.632;4.950;2023-12-20T02:56:04;6.50;99.90
21331;DHT22;10824;51.632;4.950;2023-12-20T02:58:31;6.50;99.90
21331;DHT22;10824;51.632;4.950;2023-12-20T03:00:58;6.50;99.90
21331;DHT22;10824;51.632;4.950;2023-12-20T03:03:26;6.50;99.90
21331;DHT22;10824;51.632;4.950;2023-12-20T03:05:53;6.50;99.90
21331;DHT22;10824;51.632;4.950;2023-12-20T03:08:20;6.50;99.90
21331;DHT22;10824;51.632;4.950;2023-12-20T03:10:47;6.60;99.90
21331;DHT22;10824;51.632;4.950;2023-12-20T03:13:14;6.60;99.90
21331;DHT22;10824;51.632;4.950;2023-12-20T03:15:41;6.50;99.90
21331;DHT22;10824;51.632;4.950;2023-12-20T03:18:08;6.60;99.90
21331;DHT22;10824;51.632;4.950;2023-12-20T03:20:36;6.60;99.90
21331;DHT22;10824;51.632;4.950;2023-12-20T03:23:03;6.60;99.90
21331;DHT22;10824;51.632;4.950;2023-12-20T03:25:30;6.60;99.90
21331;DHT22;10824;51.632;4.950;2023-12-20T03:27:57;6.60;99.90
21331;DHT22;10824;51.632;4.950;2023-12-20T03:30:24;6.70;99.90
21331;DHT22;10824;51.632;4.950;2023-12-20T03:32:51;6.70;99.90
21331;DHT22;10824;51.632;4.950;2023-12-20T03:35:18;6.80;99.90
21331;DHT22;10824;51.632;4.950;2023-12-20T03:37:45;6.80;99.90
21331;DHT22;10824;51.632;4.950;2023-12-20T03:40:14;6.90;99.90
21331;DHT22;10824;51.632;4.950;2023-12-20T03:42:42;6.90;99.90
21331;DHT22;10824;51.632;4.950;2023-12-20T03:45:09;6.90;99.90
21331;DHT22;10824;51.632;4.950;2023-12-20T03:47:36;7.00;99.90
21331;DHT22;10824;51.632;4.950;2023-12-20T03:50:03;7.10;99.90
21331;DHT22;10824;51.632;4.950;2023-12-20T03:52:31;7.00;99.90
21331;DHT22;10824;51.632;4.950;2023-12-20T03:54:57;7.10;99.90
21331;DHT22;10824;51.632;4.950;2023-12-20T03:57:25;7.10;99.90
21331;DHT22;10824;51.632;4.950;2023-12-20T03:59:52;7.10;99.90
21331;DHT22;10824;51.632;4.950;2023-12-20T04:02:19;7.00;99.90
21331;DHT22;10824;51.632;4.950;2023-12-20T04:04:46;7.10;99.90
21331;DHT22;10824;51.632;4.950;2023-12-20T04:07:13;7.10;99.90
21331;DHT22;10824;51.632;4.950;2023-12-20T04:09:41;7.00;99.90
21331;DHT22;10824;51.632;4.950;2023-12-20T04:12:08;7.20;99.90
21331;DHT22;10824;51.632;4.950;2023-12-20T04:14:35;7.20;99.90
21331;DHT22;10824;51.632;4.950;2023-12-20T04:17:02;7.20;99.90
21331;DHT22;10824;51.632;4.950;2023-12-20T04:19:29;7.20;99.90
21331;DHT22;10824;51.632;4.950;2023-12-20T04:21:56;7.10;99.90
21331;DHT22;10824;51.632;4.950;2023-12-20T04:24:23;7.10;99.90
21331;DHT22;10824;51.632;4.950;2023-12-20T04:26:50;7.10;99.90
21331;DHT22;10824;51.632;4.950;2023-12-20T04:29:17;7.10;99.90
21331;DHT22;10824;51.632;4.950;2023-12-20T04:31:44;7.10;99.90
21331;DHT22;10824;51.632;4.950;2023-12-20T04:34:11;7.00;99.90
21331;DHT22;10824;51.632;4.950;2023-12-20T04:36:38;7.10;99.90
21331;DHT22;10824;51.632;4.950;2023-12-20T04:39:06;7.10;99.90
21331;DHT22;10824;51.632;4.950;2023-12-20T04:41:33;7.00;99.90
21331;DHT22;10824;51.632;4.950;2023-12-20T04:44:00;7.00;99.90
21331;DHT22;10824;51.632;4.950;2023-12-20T04:46:27;7.00;99.90
21331;DHT22;10824;51.632;4.950;2023-12-20T04:48:54;7.00;99.90
21331;DHT22;10824;51.632;4.950;2023-12-20T04:51:22;7.00;99.90
21331;DHT22;10824;51.632;4.950;2023-12-20T04:53:49;7.00;99.90
21331;DHT22;10824;51.632;4.950;2023-12-20T04:56:16;7.00;99.90
21331;DHT22;10824;51.632;4.950;2023-12-20T04:58:43;7.00;99.90
21331;DHT22;10824;51.632;4.950;2023-12-20T05:01:10;6.90;99.90
21331;DHT22;10824;51.632;4.950;2023-12-20T05:03:37;7.00;99.90
21331;DHT22;10824;51.632;4.950;2023-12-20T05:06:04;6.90;99.90
21331;DHT22;10824;51.632;4.950;2023-12-20T05:08:31;6.90;99.90
21331;DHT22;10824;51.632;4.950;2023-12-20T05:10:59;6.90;99.90
21331;DHT22;10824;51.632;4.950;2023-12-20T05:13:26;6.80;99.90
21331;DHT22;10824;51.632;4.950;2023-12-20T05:16:07;6.80;99.90
21331;DHT22;10824;51.632;4.950;2023-12-20T05:18:36;6.70;99.90
21331;DHT22;10824;51.632;4.950;2023-12-20T05:21:03;6.80;99.90
21331;DHT22;10824;51.632;4.950;2023-12-20T05:23:30;6.70;99.90
21331;DHT22;10824;51.632;4.950;2023-12-20T05:25:57;6.70;99.90
21331;DHT22;10824;51.632;4.950;2023-12-20T05:28:25;6.70;99.90
21331;DHT22;10824;51.632;4.950;2023-12-20T05:30:53;6.70;99.90
21331;DHT22;10824;51.632;4.950;2023-12-20T05:33:21;6.60;99.90
21331;DHT22;10824;51.632;4.950;2023-12-20T05:35:48;6.70;99.90
21331;DHT22;10824;51.632;4.950;2023-12-20T05:38:15;6.60;99.90
21331;DHT22;10824;51.632;4.950;2023-12-20T05:40:42;6.60;99.90
21331;DHT22;10824;51.632;4.950;2023-12-20T05:43:09;6.60;99.90
21331;DHT22;10824;51.632;4.950;2023-12-20T05:45:36;6.50;99.90
21331;DHT22;10824;51.632;4.950;2023-12-20T05:48:03;6.50;99.90
21331;DHT22;10824;51.632;4.950;2023-12-20T05:50:30;6.60;99.90
21331;DHT22;10824;51.632;4.950;2023-12-20T05:52:57;6.50;99.90
21331;DHT22;10824;51.632;4.950;2023-12-20T05:55:24;6.50;99.90
21331;DHT22;10824;51.632;4.950;2023-12-20T05:57:53;6.50;99.90
21331;DHT22;10824;51.632;4.950;2023-12-20T06:00:20;6.50;99.90
21331;DHT22;10824;51.632;4.950;2023-12-20T06:02:47;6.50;99.90
21331;DHT22;10824;51.632;4.950;2023-12-20T06:05:14;6.60;99.90
21331;DHT22;10824;51.632;4.950;2023-12-20T06:07:41;6.60;99.90
21331;DHT22;10824;51.632;4.950;2023-12-20T06:10:08;6.60;99.90
21331;DHT22;10824;51.632;4.950;2023-12-20T06:12:35;6.60;99.90
21331;DHT22;10824;51.632;4.950;2023-12-20T06:15:03;6.60;99.90
21331;DHT22;10824;51.632;4.950;2023-12-20T06:17:32;6.60;99.90
21331;DHT22;10824;51.632;4.950;2023-12-20T06:19:59;6.60;99.90
21331;DHT22;10824;51.632;4.950;2023-12-20T06:22:28;6.60;99.90
21331;DHT22;10824;51.632;4.950;2023-12-20T06:24:55;6.60;99.90
21331;DHT22;10824;51.632;4.950;2023-12-20T06:27:23;6.60;99.90
21331;DHT22;10824;51.632;4.950;2023-12-20T06:29:50;6.50;99.90
21331;DHT22;10824;51.632;4.950;2023-12-20T06:32:17;6.50;99.90
21331;DHT22;10824;51.632;4.950;2023-12-20T06:34:44;6.50;99.90
21331;DHT22;10824;51.632;4.950;2023-12-20T06:37:11;6.40;99.90
21331;DHT22;10824;51.632;4.950;2023-12-20T06:39:38;6.40;99.90
21331;DHT22;10824;51.632;4.950;2023-12-20T06:42:05;6.30;99.90
21331;DHT22;10824;51.632;4.950;2023-12-20T06:44:32;6.40;99.90
21331;DHT22;10824;51.632;4.950;2023-12-20T06:46:59;6.30;99.90
21331;DHT22;10824;51.632;4.950;2023-12-20T06:49:27;6.30;99.90
21331;DHT22;10824;51.632;4.950;2023-12-20T06:51:54;6.30;99.90
21331;DHT22;10824;51.632;4.950;2023-12-20T06:54:21;6.40;99.90
21331;DHT22;10824;51.632;4.950;2023-12-20T06:56:48;6.40;99.90
21331;DHT22;10824;51.632;4.950;2023-12-20T06:59:15;6.30;99.90
21331;DHT22;10824;51.632;4.950;2023-12-20T07:01:47;6.40;99.90
21331;DHT22;10824;51.632;4.950;2023-12-20T07:04:16;6.40;99.90
21331;DHT22;10824;51.632;4.950;2023-12-20T07:06:48;6.50;99.90
21331;DHT22;10824;51.632;4.950;2023-12-20T07:09:18;6.50;99.90
21331;DHT22;10824;51.632;4.950;2023-12-20T07:11:45;6.50;99.90
21331;DHT22;10824;51.632;4.950;2023-12-20T07:14:12;6.50;99.90
21331;DHT22;10824;51.632;4.950;2023-12-20T07:16:39;6.50;99.90
21331;DHT22;10824;51.632;4.950;2023-12-20T07:19:07;6.40;99.90
21331;DHT22;10824;51.632;4.950;2023-12-20T07:21:34;6.50;99.90
21331;DHT22;10824;51.632;4.950;2023-12-20T07:24:01;6.50;99.90
21331;DHT22;10824;51.632;4.950;2023-12-20T07:26:28;6.50;99.90
21331;DHT22;10824;51.632;4.950;2023-12-20T07:28:55;6.50;99.90
21331;DHT22;10824;51.632;4.950;2023-12-20T07:31:22;6.50;99.90
21331;DHT22;10824;51.632;4.950;2023-12-20T07:33:51;6.50;99.90
21331;DHT22;10824;51.632;4.950;2023-12-20T07:36:19;6.50;99.90
21331;DHT22;10824;51.632;4.950;2023-12-20T07:38:47;6.60;99.90
21331;DHT22;10824;51.632;4.950;2023-12-20T07:41:14;6.60;99.90
21331;DHT22;10824;51.632;4.950;2023-12-20T07:43:43;6.60;99.90
21331;DHT22;10824;51.632;4.950;2023-12-20T07:46:10;6.50;99.90
21331;DHT22;10824;51.632;4.950;2023-12-20T07:48:37;6.50;99.90
21331;DHT22;10824;51.632;4.950;2023-12-20T07:51:05;6.50;99.90
21331;DHT22;10824;51.632;4.950;2023-12-20T07:53:39;6.50;99.90
21331;DHT22;10824;51.632;4.950;2023-12-20T07:56:16;6.50;99.90
21331;DHT22;10824;51.632;4.950;2023-12-20T07:58:44;6.50;99.90
21331;DHT22;10824;51.632;4.950;2023-12-20T08:01:19;6.50;99.90
21331;DHT22;10824;51.632;4.950;2023-12-20T08:03:49;6.50;99.90
21331;DHT22;10824;51.632;4.950;2023-12-20T08:06:17;6.50;99.90
21331;DHT22;10824;51.632;4.950;2023-12-20T08:08:44;6.40;99.90
21331;DHT22;10824;51.632;4.950;2023-12-20T08:11:18;6.50;99.90
21331;DHT22;10824;51.632;4.950;2023-12-20T08:13:47;6.50;99.90
21331;DHT22;10824;51.632;4.950;2023-12-20T08:16:15;6.40;99.90
21331;DHT22;10824;51.632;4.950;2023-12-20T08:18:44;6.40;99.90
21331;DHT22;10824;51.632;4.950;2023-12-20T08:21:11;6.40;99.90
21331;DHT22;10824;51.632;4.950;2023-12-20T08:23:38;6.50;99.90
21331;DHT22;10824;51.632;4.950;2023-12-20T08:26:06;6.50;99.90
21331;DHT22;10824;51.632;4.950;2023-12-20T08:28:34;6.50;99.90
21331;DHT22;10824;51.632;4.950;2023-12-20T08:31:01;6.50;99.90
21331;DHT22;10824;51.632;4.950;2023-12-20T08:33:29;6.50;99.90
21331;DHT22;10824;51.632;4.950;2023-12-20T08:35:56;6.50;99.90
21331;DHT22;10824;51.632;4.950;2023-12-20T08:38:23;6.60;99.90
21331;DHT22;10824;51.632;4.950;2023-12-20T08:40:50;6.60;99.90
21331;DHT22;10824;51.632;4.950;2023-12-20T08:43:17;6.60;99.90
21331;DHT22;10824;51.632;4.950;2023-12-20T08:45:44;6.60;99.90
21331;DHT22;10824;51.632;4.950;2023-12-20T08:48:12;6.70;99.90
21331;DHT22;10824;51.632;4.950;2023-12-20T08:50:42;6.70;99.90
21331;DHT22;10824;51.632;4.950;2023-12-20T08:53:10;6.70;99.90
21331;DHT22;10824;51.632;4.950;2023-12-20T08:55:37;6.70;99.90
21331;DHT22;10824;51.632;4.950;2023-12-20T08:58:04;6.80;99.90
21331;DHT22;10824;51.632;4.950;2023-12-20T09:00:34;6.80;99.90
21331;DHT22;10824;51.632;4.950;2023-12-20T09:03:02;6.80;99.90
21331;DHT22;10824;51.632;4.950;2023-12-20T09:05:29;6.80;99.90
21331;DHT22;10824;51.632;4.950;2023-12-20T09:07:57;6.90;99.90
21331;DHT22;10824;51.632;4.950;2023-12-20T09:10:24;6.90;99.90
21331;DHT22;10824;51.632;4.950;2023-12-20T09:12:52;6.90;99.90
21331;DHT22;10824;51.632;4.950;2023-12-20T09:15:24;6.90;99.90
21331;DHT22;10824;51.632;4.950;2023-12-20T09:17:53;6.90;99.90
21331;DHT22;10824;51.632;4.950;2023-12-20T09:20:21;7.00;99.90
21331;DHT22;10824;51.632;4.950;2023-12-20T09:22:50;7.00;99.90
21331;DHT22;10824;51.632;4.950;2023-12-20T09:25:17;7.00;99.90
21331;DHT22;10824;51.632;4.950;2023-12-20T09:27:47;7.00;99.90
21331;DHT22;10824;51.632;4.950;2023-12-20T09:30:15;7.00;99.90
21331;DHT22;10824;51.632;4.950;2023-12-20T09:32:54;7.00;99.90
21331;DHT22;10824;51.632;4.950;2023-12-20T09:35:22;7.00;99.90
21331;DHT22;10824;51.632;4.950;2023-12-20T09:37:50;7.00;99.90
21331;DHT22;10824;51.632;4.950;2023-12-20T09:40:20;7.10;99.90
21331;DHT22;10824;51.632;4.950;2023-12-20T09:45:31;7.00;99.90
21331;DHT22;10824;51.632;4.950;2023-12-20T09:47:58;7.00;99.90
21331;DHT22;10824;51.632;4.950;2023-12-20T09:50:26;7.00;99.90
21331;DHT22;10824;51.632;4.950;2023-12-20T09:52:55;7.10;99.90
21331;DHT22;10824;51.632;4.950;2023-12-20T09:55:25;7.10;99.90
21331;DHT22;10824;51.632;4.950;2023-12-20T09:57:55;7.10;99.90
21331;DHT22;10824;51.632;4.950;2023-12-20T10:00:22;7.10;99.90
21331;DHT22;10824;51.632;4.950;2023-12-20T10:02:55;7.10;99.90
21331;DHT22;10824;51.632;4.950;2023-12-20T10:05:31;7.10;99.90
21331;DHT22;10824;51.632;4.950;2023-12-20T10:08:00;7.10;99.90
21331;DHT22;10824;51.632;4.950;2023-12-20T10:10:28;7.10;99.90
21331;DHT22;10824;51.632;4.950;2023-12-20T10:13:12;7.10;99.90
21331;DHT22;10824;51.632;4.950;2023-12-20T10:15:40;7.10;99.90
21331;DHT22;10824;51.632;4.950;2023-12-20T10:18:09;7.20;99.90
21331;DHT22;10824;51.632;4.950;2023-12-20T10:20:37;7.20;99.90
21331;DHT22;10824;51.632;4.950;2023-12-20T10:23:07;7.20;99.90
21331;DHT22;10824;51.632;4.950;2023-12-20T10:25:34;7.20;99.90
21331;DHT22;10824;51.632;4.950;2023-12-20T10:28:16;7.30;99.90
21331;DHT22;10824;51.632;4.950;2023-12-20T10:30:50;7.30;99.90
21331;DHT22;10824;51.632;4.950;2023-12-20T10:33:24;7.30;99.90
21331;DHT22;10824;51.632;4.950;2023-12-20T10:35:54;7.30;99.90
21331;DHT22;10824;51.632;4.950;2023-12-20T10:38:21;7.40;99.90
21331;DHT22;10824;51.632;4.950;2023-12-20T10:40:49;7.40;99.90
21331;DHT22;10824;51.632;4.950;2023-12-20T10:43:19;7.40;99.90
21331;DHT22;10824;51.632;4.950;2023-12-20T10:45:46;7.40;99.90
21331;DHT22;10824;51.632;4.950;2023-12-20T10:48:16;7.50;99.90
21331;DHT22;10824;51.632;4.950;2023-12-20T10:50:44;7.50;99.90
21331;DHT22;10824;51.632;4.950;2023-12-20T10:53:12;7.50;99.90
21331;DHT22;10824;51.632;4.950;2023-12-20T10:55:40;7.50;99.90
21331;DHT22;10824;51.632;4.950;2023-12-20T10:58:08;7.50;99.90
21331;DHT22;10824;51.632;4.950;2023-12-20T11:00:45;7.50;99.90
21331;DHT22;10824;51.632;4.950;2023-12-20T11:03:16;7.50;99.90
21331;DHT22;10824;51.632;4.950;2023-12-20T11:05:56;7.50;99.90
21331;DHT22;10824;51.632;4.950;2023-12-20T11:11:37;7.60;99.90
21331;DHT22;10824;51.632;4.950;2023-12-20T11:14:08;7.70;99.90
21331;DHT22;10824;51.632;4.950;2023-12-20T11:16:41;7.70;99.90
21331;DHT22;10824;51.632;4.950;2023-12-20T11:19:20;7.70;99.90
21331;DHT22;10824;51.632;4.950;2023-12-20T11:21:47;7.80;99.90
21331;DHT22;10824;51.632;4.950;2023-12-20T11:24:15;7.90;99.90
21331;DHT22;10824;51.632;4.950;2023-12-20T11:26:47;7.80;99.90
21331;DHT22;10824;51.632;4.950;2023-12-20T11:29:35;7.90;99.90
21331;DHT22;10824;51.632;4.950;2023-12-20T11:35:00;7.90;99.90
21331;DHT22;10824;51.632;4.950;2023-12-20T11:37:35;8.00;99.90
21331;DHT22;10824;51.632;4.950;2023-12-20T11:40:06;7.90;99.90
21331;DHT22;10824;51.632;4.950;2023-12-20T11:42:40;7.90;99.90
21331;DHT22;10824;51.632;4.950;2023-12-20T11:45:11;8.00;99.90
21331;DHT22;10824;51.632;4.950;2023-12-20T11:47:46;8.00;99.90
21331;DHT22;10824;51.632;4.950;2023-12-20T11:50:15;8.00;99.90
21331;DHT22;10824;51.632;4.950;2023-12-20T11:52:42;8.00;99.90
21331;DHT22;10824;51.632;4.950;2023-12-20T11:55:09;8.00;99.90
21331;DHT22;10824;51.632;4.950;2023-12-20T11:57:37;8.10;99.90
21331;DHT22;10824;51.632;4.950;2023-12-20T12:00:05;8.10;99.90
21331;DHT22;10824;51.632;4.950;2023-12-20T12:02:38;8.10;99.90
21331;DHT22;10824;51.632;4.950;2023-12-20T12:05:06;8.10;99.90
21331;DHT22;10824;51.632;4.950;2023-12-20T12:07:34;8.20;99.90
21331;DHT22;10824;51.632;4.950;2023-12-20T12:10:02;8.20;99.90
21331;DHT22;10824;51.632;4.950;2023-12-20T12:12:30;8.30;99.90
21331;DHT22;10824;51.632;4.950;2023-12-20T12:14:59;8.30;99.90
21331;DHT22;10824;51.632;4.950;2023-12-20T12:17:26;8.30;99.90
21331;DHT22;10824;51.632;4.950;2023-12-20T12:20:05;8.40;99.90
21331;DHT22;10824;51.632;4.950;2023-12-20T12:22:33;8.40;99.90
21331;DHT22;10824;51.632;4.950;2023-12-20T12:25:10;8.40;99.90
21331;DHT22;10824;51.632;4.950;2023-12-20T12:27:42;8.40;99.90
21331;DHT22;10824;51.632;4.950;2023-12-20T12:30:10;8.50;99.90
21331;DHT22;10824;51.632;4.950;2023-12-20T12:32:40;8.50;99.90
21331;DHT22;10824;51.632;4.950;2023-12-20T12:35:11;8.50;99.90
21331;DHT22;10824;51.632;4.950;2023-12-20T12:37:39;8.50;99.90
21331;DHT22;10824;51.632;4.950;2023-12-20T12:40:14;8.60;99.90
21331;DHT22;10824;51.632;4.950;2023-12-20T12:42:42;8.60;99.90
21331;DHT22;10824;51.632;4.950;2023-12-20T12:45:11;8.60;99.90
21331;DHT22;10824;51.632;4.950;2023-12-20T12:47:39;8.60;99.90
21331;DHT22;10824;51.632;4.950;2023-12-20T12:50:06;8.60;99.90
21331;DHT22;10824;51.632;4.950;2023-12-20T12:52:34;8.60;99.90
21331;DHT22;10824;51.632;4.950;2023-12-20T12:55:02;8.60;99.90
21331;DHT22;10824;51.632;4.950;2023-12-20T12:57:34;8.60;99.90
21331;DHT22;10824;51.632;4.950;2023-12-20T13:00:01;8.50;99.90
21331;DHT22;10824;51.632;4.950;2023-12-20T13:02:30;8.50;99.90
21331;DHT22;10824;51.632;4.950;2023-12-20T13:04:57;8.50;99.90
21331;DHT22;10824;51.632;4.950;2023-12-20T13:07:26;8.60;99.90
21331;DHT22;10824;51.632;4.950;2023-12-20T13:09:53;8.60;99.90
21331;DHT22;10824;51.632;4.950;2023-12-20T13:12:20;8.60;99.90
21331;DHT22;10824;51.632;4.950;2023-12-20T13:14:48;8.60;99.90
21331;DHT22;10824;51.632;4.950;2023-12-20T13:17:15;8.60;99.90
21331;DHT22;10824;51.632;4.950;2023-12-20T13:19:43;8.60;99.90
21331;DHT22;10824;51.632;4.950;2023-12-20T13:22:10;8.70;99.90
21331;DHT22;10824;51.632;4.950;2023-12-20T13:24:37;8.70;99.90
21331;DHT22;10824;51.632;4.950;2023-12-20T13:27:05;8.70;99.90
21331;DHT22;10824;51.632;4.950;2023-12-20T13:29:32;8.70;99.90
21331;DHT22;10824;51.632;4.950;2023-12-20T13:31:59;8.70;99.90
21331;DHT22;10824;51.632;4.950;2023-12-20T13:34:26;8.70;99.90
21331;DHT22;10824;51.632;4.950;2023-12-20T13:36:54;8.70;99.90
21331;DHT22;10824;51.632;4.950;2023-12-20T13:39:21;8.70;99.90
21331;DHT22;10824;51.632;4.950;2023-12-20T13:41:48;8.70;99.90
21331;DHT22;10824;51.632;4.950;2023-12-20T13:44:15;8.70;99.90
21331;DHT22;10824;51.632;4.950;2023-12-20T13:46:42;8.70;99.90
21331;DHT22;10824;51.632;4.950;2023-12-20T13:49:09;8.70;99.90
21331;DHT22;10824;51.632;4.950;2023-12-20T13:51:36;8.70;99.90
21331;DHT22;10824;51.632;4.950;2023-12-20T13:54:04;8.70;99.90
21331;DHT22;10824;51.632;4.950;2023-12-20T13:56:31;8.70;99.90
21331;DHT22;10824;51.632;4.950;2023-12-20T13:59:04;8.70;99.90
21331;DHT22;10824;51.632;4.950;2023-12-20T14:01:31;8.70;99.90
21331;DHT22;10824;51.632;4.950;2023-12-20T14:03:58;8.70;99.90
21331;DHT22;10824;51.632;4.950;2023-12-20T14:06:26;8.70;99.90
21331;DHT22;10824;51.632;4.950;2023-12-20T14:08:53;8.70;99.90
21331;DHT22;10824;51.632;4.950;2023-12-20T14:11:20;8.70;99.90
21331;DHT22;10824;51.632;4.950;2023-12-20T14:13:49;8.70;99.90
21331;DHT22;10824;51.632;4.950;2023-12-20T14:16:16;8.80;99.90
21331;DHT22;10824;51.632;4.950;2023-12-20T14:18:43;8.80;99.90
21331;DHT22;10824;51.632;4.950;2023-12-20T14:21:10;8.80;99.90
21331;DHT22;10824;51.632;4.950;2023-12-20T14:23:38;8.80;99.90
21331;DHT22;10824;51.632;4.950;2023-12-20T14:26:05;8.80;99.90
21331;DHT22;10824;51.632;4.950;2023-12-20T14:28:33;8.70;99.90
21331;DHT22;10824;51.632;4.950;2023-12-20T14:31:00;8.70;99.90
21331;DHT22;10824;51.632;4.950;2023-12-20T14:33:27;8.70;99.90
21331;DHT22;10824;51.632;4.950;2023-12-20T14:35:54;8.70;99.90
21331;DHT22;10824;51.632;4.950;2023-12-20T14:38:22;8.70;99.90
21331;DHT22;10824;51.632;4.950;2023-12-20T14:40:49;8.70;99.90
21331;DHT22;10824;51.632;4.950;2023-12-20T14:43:17;8.80;99.90
21331;DHT22;10824;51.632;4.950;2023-12-20T14:45:44;8.80;99.90
21331;DHT22;10824;51.632;4.950;2023-12-20T14:48:12;8.80;99.90
21331;DHT22;10824;51.632;4.950;2023-12-20T14:50:39;8.80;99.90
21331;DHT22;10824;51.632;4.950;2023-12-20T14:53:09;8.80;99.90
21331;DHT22;10824;51.632;4.950;2023-12-20T14:55:37;8.80;99.90
21331;DHT22;10824;51.632;4.950;2023-12-20T14:58:05;8.80;99.90
21331;DHT22;10824;51.632;4.950;2023-12-20T15:00:32;8.80;99.90
21331;DHT22;10824;51.632;4.950;2023-12-20T15:03:00;8.80;99.90
21331;DHT22;10824;51.632;4.950;2023-12-20T15:05:27;8.80;99.90
21331;DHT22;10824;51.632;4.950;2023-12-20T15:07:55;8.80;99.90
21331;DHT22;10824;51.632;4.950;2023-12-20T15:10:22;8.80;99.90
21331;DHT22;10824;51.632;4.950;2023-12-20T15:12:49;8.80;99.90
21331;DHT22;10824;51.632;4.950;2023-12-20T15:15:16;8.80;99.90
21331;DHT22;10824;51.632;4.950;2023-12-20T15:17:43;8.80;99.90
21331;DHT22;10824;51.632;4.950;2023-12-20T15:20:11;8.80;99.90
21331;DHT22;10824;51.632;4.950;2023-12-20T15:22:38;8.70;99.90
21331;DHT22;10824;51.632;4.950;2023-12-20T15:25:08;8.70;99.90
21331;DHT22;10824;51.632;4.950;2023-12-20T15:27:36;8.70;99.90
21331;DHT22;10824;51.632;4.950;2023-12-20T15:30:08;8.70;99.90
21331;DHT22;10824;51.632;4.950;2023-12-20T15:32:36;8.70;99.90
21331;DHT22;10824;51.632;4.950;2023-12-20T15:35:04;8.70;99.90
21331;DHT22;10824;51.632;4.950;2023-12-20T15:37:32;8.70;99.90
21331;DHT22;10824;51.632;4.950;2023-12-20T15:40:00;8.70;99.90
21331;DHT22;10824;51.632;4.950;2023-12-20T15:42:32;8.70;99.90
21331;DHT22;10824;51.632;4.950;2023-12-20T15:45:04;8.60;99.90
21331;DHT22;10824;51.632;4.950;2023-12-20T15:47:31;8.60;99.90
21331;DHT22;10824;51.632;4.950;2023-12-20T15:49:58;8.60;99.90
21331;DHT22;10824;51.632;4.950;2023-12-20T15:52:25;8.60;99.90
21331;DHT22;10824;51.632;4.950;2023-12-20T15:54:53;8.60;99.90
21331;DHT22;10824;51.632;4.950;2023-12-20T15:57:20;8.60;99.90
21331;DHT22;10824;51.632;4.950;2023-12-20T15:59:51;8.60;99.90